Weather observations for the past three days for
Caro, Tuscola Area Airport
| Date | Time (edt) | Wind (mph) | Vis. (mi.) | Weather | Sky Cond. | Temperature (ºF) | Relative Humidity | Wind Chill (°F) | Heat Index (°F) | Pressure | Precipitation (in) | ||||||
|---|---|---|---|---|---|---|---|---|---|---|---|---|---|---|---|---|---|
| Air | Dwpt | 6 hour | altimeter (in) | sea level (mb) | 1 hr | 3 hr | 6 hr | ||||||||||
| Max. | Min. | ||||||||||||||||
| 04 | 23:35 | SW 14 G 22 | 10.00 | Partly Cloudy | SCT110 | 66.2 | 51.8 | 60% | 29.45 | 0.0 | |||||||
| 04 | 23:15 | SW 16 G 24 | 10.00 | Fair | CLR | 66.2 | 50 | 56% | 29.44 | 0.0 | |||||||
| 04 | 22:55 | S 14 G 20 | 10.00 | Fair | CLR | 66.2 | 50 | 56% | 29.44 | 0.0 | |||||||
| 04 | 22:35 | S 14 G 18 | 10.00 | Fair | CLR | 66.2 | 44.6 | 46% | 29.45 | 0.0 | |||||||
| 04 | 22:15 | S 6 | 10.00 | Fair | CLR | 60.8 | 41 | 48% | 29.45 | 0.0 | |||||||
| 04 | 21:55 | S 6 | 10.00 | Fair | CLR | 60.8 | 41 | 48% | 29.44 | 0.0 | |||||||
| 04 | 21:35 | S 5 | 10.00 | Fair | CLR | 62.6 | 41 | 45% | 29.44 | 0.0 | |||||||
| 04 | 21:15 | SW 7 | 10.00 | Fair | CLR | 64.4 | 41 | 43% | 29.44 | 0.0 | |||||||
| 04 | 20:55 | SW 9 | 10.00 | Fair | CLR | 66.2 | 41 | 40% | 29.44 | 0.0 | |||||||
| 04 | 20:35 | SW 12 G 18 | 10.00 | Fair | CLR | 68 | 39.2 | 35% | 29.44 | 0.0 | |||||||
| 04 | 20:15 | SW 14 G 18 | 10.00 | Fair | CLR | 69.8 | 39.2 | 33% | 29.44 | 0.0 | |||||||
| 04 | 19:55 | SW 13 | 10.00 | Fair | CLR | 71.6 | 41 | 76.8 | 72.3 | 33% | 29.44 | 0.0 | |||||
| 04 | 19:35 | SW 15 G 25 | 10.00 | A Few Clouds | FEW085 | 73.4 | 41 | 31% | 29.44 | 0.0 | |||||||
| 04 | 19:15 | SW 15 | 10.00 | A Few Clouds | FEW085 | 73.4 | 41 | 31% | 29.44 | 0.0 | |||||||
| 04 | 18:55 | SW 16 G 26 | 10.00 | Fair | CLR | 73.4 | 39.2 | 29% | 29.45 | 0.0 | |||||||
| 04 | 18:35 | SW 15 G 24 | 10.00 | Fair | CLR | 75.2 | 39.2 | 27% | 77 | 29.45 | 0.0 | ||||||
| 04 | 18:15 | SW 22 G 31 | 10.00 | Fair and Breezy | CLR | 75.2 | 37.4 | 25% | 77 | 29.46 | 0.0 | ||||||
| 04 | 17:55 | SW 20 G 30 | 10.00 | A Few Clouds | FEW095 | 75.2 | 37.4 | 25% | 77 | 29.46 | 0.0 | ||||||
| 04 | 17:35 | SW 23 G 36 | 10.00 | A Few Clouds and Breezy | FEW095 | 73.4 | 37.4 | 27% | 29.47 | 0.0 | |||||||
| 04 | 17:15 | SW 24 G 30 | 10.00 | Fair and Breezy | CLR | 75.2 | 37.4 | 25% | 77 | 29.47 | 0.0 | ||||||
| 04 | 16:55 | SW 18 G 29 | 10.00 | Fair | CLR | 77 | 35.6 | 22% | 77 | 29.47 | 0.0 | ||||||
| 04 | 16:35 | W 20 G 24 | 10.00 | Fair | CLR | 75.2 | 35.6 | 24% | 76 | 29.48 | 0.0 | ||||||
| 04 | 16:15 | W 18 G 31 | 10.00 | Fair | CLR | 75.2 | 33.8 | 22% | 76 | 29.48 | 0.0 | ||||||
| 04 | 15:35 | W 24 G 33 | 10.00 | Fair and Breezy | CLR | 75.2 | 35.6 | 24% | 76 | 29.49 | 0.0 | ||||||
| 04 | 15:15 | SW 22 G 30 | 10.00 | Fair and Breezy | CLR | 75.2 | 37.4 | 25% | 77 | 29.49 | 0.0 | ||||||
| 04 | 14:55 | SW 21 G 33 | 10.00 | Fair and Breezy | CLR | 75.2 | 35.6 | 24% | 76 | 29.49 | 0.0 | ||||||
| 04 | 14:35 | SW 26 G 31 | 10.00 | Fair and Windy | CLR | 75.2 | 37.4 | 25% | 77 | 29.5 | 0.0 | ||||||
| 04 | 14:15 | SW 24 G 36 | 10.00 | Fair and Breezy | CLR | 73.4 | 37.4 | 27% | 29.5 | 0.0 | |||||||
| 04 | 13:55 | SW 20 G 32 | 10.00 | Fair | CLR | 73.4 | 39.2 | 74.8 | 50.4 | 29% | 29.51 | 0.0 | |||||
| 04 | 13:35 | SW 18 G 35 | 10.00 | Fair | CLR | 73.4 | 37.4 | 27% | 29.52 | 0.0 | |||||||
| 04 | 13:15 | SW 24 G 33 | 10.00 | Fair and Breezy | CLR | 73.4 | 39.2 | 29% | 29.53 | 0.0 | |||||||
| 04 | 12:55 | W 18 G 33 | 10.00 | Fair | CLR | 71.6 | 41 | 33% | 29.54 | 0.0 | |||||||
| 04 | 12:35 | SW 20 G 33 | 10.00 | Fair | CLR | 71.6 | 42.8 | 36% | 29.55 | 0.0 | |||||||
| 04 | 12:15 | S 20 | 10.00 | Fair | CLR | 71.6 | 42.8 | 36% | 29.56 | 0.0 | |||||||
| 04 | 11:55 | SW 17 G 22 | 10.00 | Fair | CLR | 69.8 | 44.6 | 40% | 29.57 | 0.0 | |||||||
| 04 | 11:35 | SW 12 G 22 | 10.00 | Fair | CLR | 68 | 48.2 | 49% | 29.58 | 0.0 | |||||||
| 04 | 11:15 | SW 12 | 10.00 | Fair | CLR | 66.2 | 46.4 | 49% | 29.59 | 0.0 | |||||||
| 04 | 10:55 | S 15 | 10.00 | Fair | CLR | 66.2 | 46.4 | 49% | 29.59 | 0.0 | |||||||
| 04 | 10:35 | SW 15 G 18 | 10.00 | Fair | CLR | 64.4 | 46.4 | 52% | 29.59 | 0.0 | |||||||
| 04 | 10:15 | SW 12 G 18 | 10.00 | Fair | CLR | 62.6 | 46.4 | 56% | 29.59 | 0.0 | |||||||
| 04 | 09:55 | SW 13 | 10.00 | Fair | CLR | 60.8 | 46.4 | 59% | 29.6 | 0.0 | |||||||
| 04 | 09:35 | SW 15 | 10.00 | Fair | CLR | 59 | 44.6 | 59% | 29.6 | 0.0 | |||||||
| 04 | 09:15 | SW 13 G 23 | 10.00 | Fair | CLR | 57.2 | 44.6 | 63% | 29.61 | 0.0 | |||||||
| 04 | 08:55 | SW 12 | 10.00 | Fair | CLR | 57.2 | 44.6 | 63% | 29.61 | 0.0 | |||||||
| 04 | 08:35 | S 12 G 16 | 10.00 | Fair | CLR | 55.4 | 44.6 | 67% | 29.62 | 0.0 | |||||||
| 04 | 08:15 | SW 10 | 10.00 | Fair | CLR | 53.6 | 42.8 | 67% | 29.62 | 0.0 | |||||||
| 04 | 07:55 | S 9 | 10.00 | Fair | CLR | 51.8 | 42.8 | 50.9 | 45.7 | 72% | 29.62 | 0.0 | |||||
| 04 | 07:35 | S 8 | 10.00 | Fair | CLR | 50 | 42.8 | 76% | 47 | 29.61 | 0.0 | ||||||
| 04 | 07:15 | SW 8 | 10.00 | Fair | CLR | 48.2 | 41 | 76% | 45 | 29.62 | 0.0 | ||||||
| 04 | 06:55 | S 7 | 10.00 | Fair | CLR | 46.4 | 41 | 82% | 43 | 29.62 | 0.0 | ||||||
| 04 | 06:35 | SW 8 | 10.00 | Fair | CLR | 46.4 | 41 | 82% | 43 | 29.62 | 0.0 | ||||||
| 04 | 06:15 | S 7 | 10.00 | Fair | CLR | 46.4 | 41 | 82% | 43 | 29.62 | 0.0 | ||||||
| 04 | 05:55 | S 8 | 10.00 | Fair | CLR | 48.2 | 41 | 76% | 45 | 29.62 | 0.0 | ||||||
| 04 | 05:35 | SW 10 G 17 | 10.00 | Fair | CLR | 48.2 | 41 | 76% | 44 | 29.62 | 0.0 | ||||||
| 04 | 05:15 | S 10 | 10.00 | Fair | CLR | 48.2 | 41 | 76% | 44 | 29.63 | 0.0 | ||||||
| 04 | 04:55 | SW 9 | 10.00 | Fair | CLR | 48.2 | 41 | 76% | 45 | 29.63 | 0.0 | ||||||
| 04 | 04:35 | SW 10 | 10.00 | Fair | CLR | 48.2 | 41 | 76% | 44 | 29.63 | 0.0 | ||||||
| 04 | 04:15 | S 12 | 10.00 | Fair | CLR | 48.2 | 39.2 | 71% | 44 | 29.63 | 0.0 | ||||||
| 04 | 03:55 | SW 12 G 17 | 10.00 | Fair | CLR | 50 | 39.2 | 67% | 46 | 29.63 | 0.0 | ||||||
| 04 | 03:35 | SW 12 | 10.00 | Fair | CLR | 50 | 39.2 | 67% | 46 | 29.64 | 0.0 | ||||||
| 04 | 03:15 | S 10 | 10.00 | Fair | CLR | 50 | 39.2 | 67% | 46 | 29.64 | 0.0 | ||||||
| 04 | 02:55 | S 12 | 10.00 | Fair | CLR | 50 | 39.2 | 67% | 46 | 29.65 | 0.0 | ||||||
| 04 | 02:35 | SW 10 | 10.00 | Fair | CLR | 50 | 39.2 | 67% | 46 | 29.66 | 0.0 | ||||||
| 04 | 02:15 | SW 12 G 17 | 10.00 | A Few Clouds | FEW090 | 50 | 39.2 | 67% | 46 | 29.68 | 0.0 | ||||||
| 04 | 01:55 | SW 15 | 10.00 | Mostly Cloudy | BKN090 | 50 | 39.2 | 57.7 | 50.2 | 67% | 45 | 29.68 | 0.0 | ||||
| 04 | 01:35 | SW 13 | 10.00 | Mostly Cloudy | FEW080 SCT100 BKN120 | 51.8 | 39.2 | 62% | 29.7 | 0.0 | |||||||
| 04 | 00:55 | SW 15 G 23 | 10.00 | Partly Cloudy | SCT070 | 51.8 | 39.2 | 62% | 29.7 | 0.0 | |||||||
| 04 | 00:35 | SW 12 G 18 | 10.00 | Mostly Cloudy | SCT070 BKN095 | 51.8 | 39.2 | 62% | 29.7 | 0.0 | |||||||
| 04 | 00:15 | SW 12 G 20 | 10.00 | Partly Cloudy | SCT095 | 51.8 | 39.2 | 62% | 29.7 | 0.0 | |||||||
| 03 | 23:55 | SW 14 | 10.00 | A Few Clouds | FEW095 | 51.8 | 39.2 | 62% | 29.71 | 0.0 | |||||||
| 03 | 23:35 | SW 13 G 22 | 10.00 | Fair | CLR | 51.8 | 39.2 | 62% | 29.71 | 0.0 | |||||||
| 03 | 23:15 | SW 14 G 21 | 10.00 | A Few Clouds | FEW070 | 51.8 | 37.4 | 58% | 29.71 | 0.0 | |||||||
| 03 | 22:55 | SW 16 | 10.00 | Partly Cloudy | SCT070 | 51.8 | 37.4 | 58% | 29.72 | 0.0 | |||||||
| 03 | 22:35 | SW 14 G 20 | 10.00 | Fair | CLR | 51.8 | 37.4 | 58% | 29.72 | 0.0 | |||||||
| 03 | 22:15 | SW 14 G 20 | 10.00 | Fair | CLR | 53.6 | 37.4 | 54% | 29.73 | 0.0 | |||||||
| 03 | 21:55 | SW 14 | 10.00 | Partly Cloudy | SCT065 | 53.6 | 37.4 | 54% | 29.73 | 0.0 | |||||||
| 03 | 21:35 | SW 16 G 30 | 10.00 | Overcast | OVC065 | 55.4 | 37.4 | 51% | 29.73 | 0.0 | |||||||
| 03 | 21:15 | SW 16 G 21 | 10.00 | Overcast | OVC065 | 55.4 | 37.4 | 51% | 29.73 | 0.0 | |||||||
| 03 | 20:55 | SW 14 G 20 | 10.00 | Mostly Cloudy | BKN065 | 55.4 | 37.4 | 51% | 29.73 | 0.0 | |||||||
| 03 | 20:35 | SW 18 G 25 | 10.00 | Fair | CLR | 55.4 | 39.2 | 55% | 29.72 | 0.0 | |||||||
| 03 | 20:15 | SW 15 G 24 | 10.00 | A Few Clouds | FEW065 FEW085 | 57.2 | 39.2 | 51% | 29.72 | 0.0 | |||||||
| 03 | 19:55 | SW 13 | 10.00 | Mostly Cloudy | SCT085 BKN120 | 57.2 | 39.2 | 64.9 | 57.4 | 51% | 29.72 | 0.0 | |||||
| 03 | 19:35 | SW 20 G 28 | 10.00 | Overcast | OVC085 | 57.2 | 39.2 | 51% | 29.72 | 0.0 | |||||||
| 03 | 19:15 | W 13 | 10.00 | Overcast | OVC075 | 57.2 | 39.2 | 51% | 29.72 | 0.0 | |||||||
| 03 | 18:55 | W 14 G 28 | 10.00 | Overcast | OVC065 | 59 | 37.4 | 45% | 29.73 | 0.0 | |||||||
| 03 | 18:35 | W 15 G 21 | 10.00 | Overcast | BKN065 OVC080 | 59 | 37.4 | 45% | 29.73 | 0.0 | |||||||
| 03 | 18:15 | W 20 G 29 | 10.00 | Overcast | SCT065 BKN090 OVC100 | 60.8 | 35.6 | 39% | 29.73 | 0.0 | |||||||
| 03 | 17:55 | SW 22 G 31 | 10.00 | Mostly Cloudy and Breezy | BKN065 BKN075 BKN100 | 62.6 | 35.6 | 37% | 29.73 | 0.0 | |||||||
| 03 | 17:35 | W 24 G 32 | 10.00 | Mostly Cloudy and Breezy | BKN070 | 62.6 | 35.6 | 37% | 29.73 | 0.0 | |||||||
| 03 | 17:15 | SW 20 G 29 | 10.00 | Overcast | BKN070 OVC080 | 62.6 | 35.6 | 37% | 29.73 | 0.0 | |||||||
| 03 | 16:55 | SW 20 G 32 | 10.00 | Overcast | BKN065 OVC085 | 62.6 | 35.6 | 37% | 29.73 | 0.0 | |||||||
| 03 | 16:35 | W 21 G 33 | 10.00 | Mostly Cloudy and Breezy | BKN070 BKN080 | 62.6 | 37.4 | 39% | 29.74 | 0.0 | |||||||
| 03 | 16:15 | W 24 G 31 | 10.00 | Mostly Cloudy and Breezy | BKN060 BKN090 | 64.4 | 37.4 | 37% | 29.74 | 0.0 | |||||||
| 03 | 15:55 | W 22 G 31 | 10.00 | Overcast and Breezy | BKN060 OVC090 | 64.4 | 37.4 | 37% | 29.75 | 0.0 | |||||||
| 03 | 15:35 | W 23 G 32 | 10.00 | Mostly Cloudy and Breezy | BKN060 BKN075 BKN090 | 62.6 | 39.2 | 42% | 29.75 | 0.0 | |||||||
| 03 | 15:15 | W 18 G 28 | 10.00 | Overcast | SCT060 BKN090 OVC110 | 60.8 | 37.4 | 42% | 29.75 | 0.0 | |||||||
| 03 | 14:55 | W 23 G 36 | 10.00 | Mostly Cloudy and Breezy | BKN110 | 64.4 | 37.4 | 37% | 29.76 | 0.0 | |||||||
| 03 | 14:35 | SW 18 G 30 | 10.00 | Fair | CLR | 62.6 | 37.4 | 39% | 29.77 | 0.0 | |||||||
| 03 | 14:15 | SW 20 | 10.00 | Partly Cloudy | SCT070 SCT080 | 60.8 | 37.4 | 42% | 29.78 | 0.0 | |||||||
| 03 | 13:55 | SW 15 G 25 | 10.00 | Overcast | OVC060 | 59 | 35.6 | 57.4 | 47.8 | 42% | 29.8 | 0.0 | |||||
| 03 | 13:35 | SW 13 G 21 | 10.00 | Overcast | OVC060 | 57.2 | 35.6 | 44% | 29.8 | 0.0 | |||||||
| 03 | 13:15 | SW 9 G 20 | 10.00 | Overcast | OVC060 | 55.4 | 35.6 | 47% | 29.82 | 0.0 | |||||||
| 03 | 12:55 | SW 15 G 20 | 10.00 | Overcast | FEW050 OVC060 | 55.4 | 33.8 | 44% | 29.82 | 0.0 | |||||||
| 03 | 12:35 | SW 13 G 24 | 10.00 | Overcast | BKN070 OVC080 | 55.4 | 33.8 | 44% | 29.83 | 0.0 | |||||||
| 03 | 12:15 | SW 15 G 20 | 10.00 | Overcast | FEW050 BKN060 OVC080 | 55.4 | 33.8 | 44% | 29.84 | 0.0 | |||||||
| 03 | 11:55 | W 16 G 23 | 10.00 | Overcast | FEW050 OVC060 | 53.6 | 33.8 | 47% | 29.84 | 0.0 | |||||||
| 03 | 11:35 | SW 17 G 24 | 10.00 | Overcast | BKN070 OVC085 | 53.6 | 33.8 | 47% | 29.85 | 0.0 | |||||||
| 03 | 11:15 | SW 15 G 21 | 10.00 | Overcast | SCT070 OVC090 | 53.6 | 33.8 | 47% | 29.85 | 0.0 | |||||||
| 03 | 10:55 | W 15 | 10.00 | Overcast | OVC100 | 53.6 | 33.8 | 47% | 29.84 | 0.0 | |||||||
| 03 | 10:35 | SW 16 G 26 | 10.00 | Mostly Cloudy | BKN110 | 53.6 | 32 | 44% | 29.84 | 0.0 | |||||||
| 03 | 10:15 | W 15 G 22 | 10.00 | A Few Clouds | FEW110 | 53.6 | 32 | 44% | 29.84 | 0.0 | |||||||
| 03 | 09:55 | W 14 G 18 | 10.00 | Mostly Cloudy | BKN110 | 51.8 | 32 | 47% | 29.85 | 0.0 | |||||||
| 03 | 09:35 | W 17 G 24 | 10.00 | Partly Cloudy | SCT120 | 50 | 32 | 50% | 45 | 29.86 | 0.0 | ||||||
| 03 | 09:15 | SW 15 G 18 | 10.00 | NULL | NULL | 50 | 32 | 50% | 45 | 29.86 | 0.0 | ||||||
| 03 | 08:56 | SW 15 | 0.00 | NULL | NULL | 0 | 0 | 0% | 29.86 | 0.0 | |||||||
| 03 | 08:35 | SW 17 G 22 | 10.00 | NULL | NULL | 46.4 | 30.2 | 53% | 40 | 29.86 | 0.0 | ||||||
| 03 | 08:15 | SW 14 G 17 | 10.00 | NULL | NULL | 44.6 | 30.2 | 57% | 39 | 29.86 | 0.0 | ||||||
| 03 | 07:55 | SW 13 G 20 | 10.00 | NULL | NULL | 42.8 | 28.4 | 57% | 37 | 29.86 | 0.0 | ||||||
| 03 | 07:35 | SW 12 G 16 | 10.00 | NULL | NULL | 41 | 28.4 | 61% | 35 | 29.86 | 0.0 | ||||||
| 03 | 07:15 | SW 12 | 10.00 | NULL | NULL | 39.2 | 26.6 | 61% | 33 | 29.86 | 0.0 | ||||||
| 03 | 06:55 | SW 7 | 10.00 | NULL | NULL | 33.8 | 26.6 | 75% | 28 | 29.86 | 0.0 | ||||||
| 03 | 06:35 | S 7 | 10.00 | NULL | NULL | 33.8 | 24.8 | 70% | 28 | 29.87 | 0.0 | ||||||
| 03 | 06:15 | SW 5 | 10.00 | NULL | NULL | 32 | 24.8 | 75% | 28 | 29.87 | 0.0 | ||||||
| 03 | 05:55 | S 2 | 10.00 | NULL | NULL | 32 | 26.6 | 80% | 29.88 | 0.0 | |||||||
| 03 | 05:35 | SW 2 | 10.00 | NULL | NULL | 30.2 | 28.4 | 93% | 29.89 | 0.0 | |||||||
| 03 | 05:15 | S 2 | 10.00 | NULL | NULL | 28.4 | 26.6 | 93% | 29.9 | 0.0 | |||||||
| 03 | 04:55 | S 2 | 10.00 | NULL | NULL | 30.2 | 26.6 | 86% | 29.91 | 0.0 | |||||||
| 03 | 04:35 | S 2 | 10.00 | NULL | NULL | 30.2 | 28.4 | 93% | 29.92 | 0.0 | |||||||
| 03 | 04:15 | SW 2 | 10.00 | NULL | NULL | 30.2 | 28.4 | 93% | 29.92 | 0.0 | |||||||
| 03 | 03:55 | S 2 | 10.00 | NULL | NULL | 30.2 | 28.4 | 93% | 29.92 | 0.0 | |||||||
| 03 | 03:35 | S 2 | 10.00 | NULL | NULL | 32 | 28.4 | 87% | 29.93 | 0.0 | |||||||
| 03 | 03:15 | Calm | 10.00 | NULL | NULL | 32 | 28.4 | 87% | 29.93 | 0.0 | |||||||
| 03 | 02:55 | S 1 | 10.00 | NULL | NULL | 33.8 | 26.6 | 75% | 29.93 | 0.0 | |||||||
| 03 | 02:35 | Vrbl 1 | 10.00 | NULL | NULL | 32 | 28.4 | 87% | 29.94 | 0.0 | |||||||
| 03 | 02:15 | S 1 | 10.00 | NULL | NULL | 33.8 | 26.6 | 75% | 29.94 | 0.0 | |||||||
| 03 | 01:55 | SE 2 | 10.00 | NULL | NULL | 33.8 | 28.4 | 81% | 29.94 | 0.0 | |||||||
| 03 | 01:35 | S 2 | 10.00 | NULL | NULL | 33.8 | 26.6 | 75% | 29.95 | 0.0 | |||||||
| 03 | 01:15 | SW 6 | 10.00 | NULL | NULL | 35.6 | 26.6 | 70% | 31 | 29.95 | 0.0 | ||||||
| 03 | 00:55 | SW 5 | 10.00 | NULL | NULL | 33.8 | 26.6 | 75% | 30 | 29.95 | 0.0 | ||||||
| 03 | 00:35 | SW 2 | 10.00 | NULL | NULL | 35.6 | 26.6 | 70% | 29.95 | 0.0 | |||||||
| 03 | 00:15 | SW 6 | 10.00 | NULL | NULL | 35.6 | 26.6 | 70% | 31 | 29.95 | 0.0 | ||||||
| 02 | 23:55 | SW 6 | 10.00 | Fair | CLR | 33.8 | 26.6 | 75% | 29 | 29.95 | 0.0 | ||||||
| 02 | 23:35 | SW 3 | 10.00 | Fair | CLR | 35.6 | 26.6 | 70% | 29.95 | 0.0 | |||||||
| 02 | 23:15 | SW 5 | 10.00 | Fair | CLR | 37.4 | 26.6 | 65% | 34 | 29.95 | 0.0 | ||||||
| 02 | 22:55 | SW 5 | 10.00 | Fair | CLR | 37.4 | 24.8 | 60% | 34 | 29.95 | 0.0 | ||||||
| 02 | 22:35 | SW 5 | 10.00 | Fair | CLR | 37.4 | 24.8 | 60% | 34 | 29.96 | 0.0 | ||||||
| 02 | 22:15 | SW 3 | 10.00 | A Few Clouds | FEW090 | 39.2 | 24.8 | 56% | 29.96 | 0.0 | |||||||
| 02 | 21:55 | SW 3 | 10.00 | Partly Cloudy | SCT090 | 39.2 | 24.8 | 56% | 29.96 | 0.0 | |||||||
| 02 | 21:35 | SW 3 | 10.00 | A Few Clouds | FEW090 | 39.2 | 24.8 | 56% | 29.96 | 0.0 | |||||||
| 02 | 21:15 | S 3 | 10.00 | Mostly Cloudy | BKN090 | 39.2 | 28.4 | 65% | 29.95 | 0.0 | |||||||
| 02 | 20:55 | S 2 | 10.00 | Overcast | OVC090 | 42.8 | 26.6 | 53% | 29.95 | 0.0 | |||||||
| 02 | 20:35 | SW 3 | 10.00 | Mostly Cloudy | BKN090 | 42.8 | 26.6 | 53% | 29.95 | 0.0 | |||||||
| 02 | 20:15 | SW 3 | 10.00 | Mostly Cloudy | BKN090 | 46.4 | 23 | 40% | 29.95 | 0.0 | |||||||
| 02 | 19:55 | SW 3 | 10.00 | A Few Clouds | FEW090 | 46.4 | 23 | 50.7 | 45.1 | 40% | 29.95 | 0.0 | |||||
| 02 | 19:35 | S 7 | 10.00 | Fair | CLR | 46.4 | 21.2 | 37% | 43 | 29.96 | 0.0 | ||||||
| 02 | 19:15 | SW 6 | 10.00 | A Few Clouds | FEW075 | 48.2 | 21.2 | 34% | 46 | 29.96 | 0.0 | ||||||
| 02 | 18:55 | S 7 | 10.00 | Fair | CLR | 48.2 | 23 | 37% | 46 | 29.96 | 0.0 | ||||||
| 02 | 18:35 | Vrbl 3 | 10.00 | Fair | CLR | 48.2 | 21.2 | 34% | 29.97 | 0.0 | |||||||
| 02 | 18:15 | Vrbl 7 | 10.00 | Fair | CLR | 50 | 23 | 35% | 48 | 29.97 | 0.0 | ||||||
| 02 | 17:55 | W 10 | 10.00 | A Few Clouds | FEW065 | 50 | 23 | 35% | 46 | 29.98 | 0.0 | ||||||
| 02 | 17:35 | NW 8 | 10.00 | A Few Clouds | FEW065 FEW080 | 50 | 23 | 35% | 47 | 29.98 | 0.0 | ||||||
| 02 | 17:15 | SW 9 | 10.00 | Mostly Cloudy | BKN080 | 50 | 23 | 35% | 47 | 29.98 | 0.0 | ||||||
| 02 | 16:55 | Vrbl 6 | 10.00 | Overcast | OVC080 | 48.2 | 23 | 37% | 46 | 29.99 | 0.0 | ||||||
| 02 | 16:35 | Vrbl 6 | 10.00 | Overcast | FEW065 OVC080 | 48.2 | 23 | 37% | 46 | 29.99 | 0.0 | ||||||
| 02 | 16:15 | Vrbl 5 | 10.00 | Overcast | FEW065 OVC080 | 48.2 | 21.2 | 34% | 47 | 30 | 0.0 | ||||||
| 02 | 15:55 | N 9 | 10.00 | Mostly Cloudy | BKN080 | 48.2 | 21.2 | 34% | 45 | 30 | 0.0 | ||||||
| 02 | 15:35 | N 12 | 10.00 | Partly Cloudy | FEW060 FEW075 SCT085 | 48.2 | 19.4 | 32% | 44 | 30.01 | 0.0 | ||||||
| 02 | 15:15 | Vrbl 3 | 10.00 | Mostly Cloudy | BKN060 | 46.4 | 24.8 | 43% | 30.02 | 0.0 | |||||||
| 02 | 14:55 | NW 7 | 10.00 | Overcast | SCT060 OVC070 | 48.2 | 24.8 | 40% | 46 | 30.03 | 0.0 | ||||||
| 02 | 14:35 | NW 8 | 10.00 | Mostly Cloudy | BKN050 BKN065 | 46.4 | 24.8 | 43% | 43 | 30.03 | 0.0 | ||||||
| 02 | 14:15 | Vrbl 6 | 10.00 | Mostly Cloudy | BKN050 | 48.2 | 24.8 | 40% | 46 | 30.03 | 0.0 | ||||||
| 02 | 13:55 | W 10 | 10.00 | Mostly Cloudy | BKN049 | 46.4 | 24.8 | 48.6 | 36 | 43% | 42 | 30.03 | 0.0 | ||||
| 02 | 13:35 | NW 9 | 10.00 | Partly Cloudy | SCT047 | 48.2 | 26.6 | 43% | 45 | 30.03 | 0.0 | ||||||
| 02 | 13:15 | W 10 | 10.00 | A Few Clouds | FEW047 | 46.4 | 26.6 | 46% | 42 | 30.04 | 0.0 | ||||||
| 02 | 12:55 | NW 8 | 10.00 | A Few Clouds | FEW046 | 44.6 | 26.6 | 49% | 41 | 30.04 | 0.0 | ||||||
| 02 | 12:35 | Vrbl 5 | 10.00 | A Few Clouds | FEW044 | 44.6 | 24.8 | 46% | 43 | 30.04 | 0.0 | ||||||
| 02 | 12:15 | Vrbl 3 G 16 | 10.00 | Partly Cloudy | SCT043 | 44.6 | 24.8 | 46% | 30.05 | 0.0 | |||||||
| 02 | 11:55 | Vrbl 6 | 10.00 | Mostly Cloudy | BKN043 | 42.8 | 24.8 | 49% | 40 | 30.05 | 0.0 | ||||||
| 02 | 11:35 | NW 8 | 10.00 | Partly Cloudy | SCT043 SCT050 | 42.8 | 26.6 | 53% | 39 | 30.05 | 0.0 | ||||||
| 02 | 11:15 | NW 6 | 10.00 | Mostly Cloudy | BKN043 | 42.8 | 24.8 | 49% | 40 | 30.05 | 0.0 | ||||||
| 02 | 10:55 | NW 12 G 16 | 10.00 | Mostly Cloudy | SCT041 BKN047 | 42.8 | 26.6 | 53% | 37 | 30.05 | 0.0 | ||||||
| 02 | 10:35 | N 9 | 10.00 | Partly Cloudy | SCT041 SCT047 | 41 | 26.6 | 57% | 36 | 30.05 | 0.0 | ||||||
| 02 | 10:15 | NW 8 | 10.00 | Partly Cloudy | FEW030 SCT043 | 41 | 26.6 | 57% | 36 | 30.05 | 0.0 | ||||||
| 02 | 09:55 | NW 10 | 10.00 | Overcast | SCT028 BKN041 OVC047 | 39.2 | 28.4 | 65% | 33 | 30.05 | 0.0 | ||||||
| 02 | 09:35 | NW 6 | 10.00 | Overcast | FEW028 SCT037 OVC046 | 39.2 | 32 | 75% | 36 | 30.06 | 0.0 | ||||||
| 02 | 09:15 | NW 9 | 10.00 | Overcast | OVC044 | 39.2 | 33.8 | 81% | 34 | 30.06 | 0.0 | ||||||
| 02 | 08:55 | NW 10 | 10.00 | Mostly Cloudy | BKN044 BKN060 | 37.4 | 32 | 81% | 31 | 30.06 | 0.0 | ||||||
| 02 | 08:35 | W 7 | 10.00 | Fair | CLR | 39.2 | 33.8 | 81% | 35 | 30.06 | 0.0 | ||||||
| 02 | 08:15 | W 7 | 10.00 | Fair | CLR | 37.4 | 32 | 81% | 33 | 30.06 | 0.0 | ||||||
| 02 | 07:55 | W 7 | 10.00 | Fair | CLR | 35.6 | 32 | 36.3 | 32.2 | 87% | 31 | 30.05 | 0.0 | ||||
| 02 | 07:35 | W 7 | 10.00 | Fair | CLR | 35.6 | 32 | 87% | 31 | 30.05 | 0.0 | ||||||
| 02 | 07:15 | W 5 | 10.00 | Fair | CLR | 33.8 | 30.2 | 87% | 30 | 30.05 | 0.0 | ||||||
| 02 | 06:55 | W 5 | 10.00 | Fair | CLR | 33.8 | 30.2 | 87% | 30 | 30.04 | 0.0 | ||||||
| 02 | 06:35 | W 6 | 10.00 | A Few Clouds | FEW030 | 33.8 | 30.2 | 87% | 29 | 30.04 | 0.0 | ||||||
| 02 | 06:15 | W 3 | 10.00 | Fair | CLR | 33.8 | 32 | 93% | 30.04 | 0.0 | |||||||
| 02 | 05:55 | W 3 | 10.00 | Fair | CLR | 32 | 32 | 100% | 30.04 | 0.0 | |||||||
| 02 | 05:35 | SW 3 | 10.00 | Partly Cloudy | SCT033 SCT046 SCT060 | 33.8 | 32 | 93% | 30.03 | 0.0 | |||||||
| 02 | 05:15 | W 3 | 10.00 | Overcast | SCT035 BKN046 OVC060 | 35.6 | 32 | 87% | 30.03 | 0.0 | |||||||
| 02 | 04:55 | W 3 | 10.00 | Overcast | BKN060 BKN070 OVC080 | 35.6 | 32 | 87% | 30.03 | 0.0 | |||||||
| 02 | 04:35 | SW 5 | 10.00 | Overcast | FEW040 OVC060 | 35.6 | 33.8 | 93% | 32 | 30.03 | 0.0 | ||||||
| 02 | 04:15 | W 6 | 10.00 | Light Rain | FEW047 OVC065 | 35.6 | 33.8 | 93% | 31 | 30.02 | 0.0 | ||||||
| 02 | 03:55 | W 5 | 10.00 | Overcast | SCT037 OVC048 | 35.6 | 33.8 | 93% | 32 | 30.02 | 0.0 | ||||||
| 02 | 03:35 | W 2 | 10.00 | Overcast | BKN035 OVC045 | 35.6 | 33.8 | 93% | 30.02 | 0.0 | |||||||
| 02 | 03:15 | SW 3 | 10.00 | Overcast | BKN035 BKN041 OVC048 | 35.6 | 33.8 | 93% | 30.02 | 0.0 | |||||||
| 02 | 02:55 | SW 3 | 10.00 | Overcast | SCT037 BKN048 OVC085 | 35.6 | 32 | 87% | 30.03 | 0.0 | |||||||
| 02 | 02:35 | SW 2 | 10.00 | Overcast | OVC075 | 35.6 | 33.8 | 93% | 30.03 | 0.0 | |||||||
| 02 | 02:15 | SW 2 | 10.00 | Overcast | OVC070 | 35.6 | 33.8 | 93% | 30.03 | 0.0 | |||||||
| 02 | 01:55 | S 3 | 10.00 | Mostly Cloudy | FEW047 SCT060 BKN070 | 35.6 | 33.8 | 39.2 | 34.9 | 93% | 30.03 | 0.0 | |||||
| 02 | 01:35 | S 2 | 10.00 | Light Rain | FEW038 SCT047 BKN055 | 35.6 | 32 | 87% | 30.03 | 0.0 | |||||||
| 02 | 01:15 | NW 2 | 10.00 | Light Rain | FEW019 FEW030 SCT049 | 35.6 | 32 | 87% | 30.04 | 0.0 | |||||||
| 02 | 00:55 | W 1 | 10.00 | Overcast | FEW041 OVC049 | 35.6 | 33.8 | 93% | 30.03 | 0.0 | |||||||
| 02 | 00:35 | Calm | 10.00 | Overcast | FEW018 FEW033 OVC049 | 35.6 | 33.8 | 93% | 30.03 | 0.0 | |||||||
| 02 | 00:15 | S 3 | 10.00 | Mostly Cloudy | SCT049 SCT060 BKN085 | 35.6 | 32 | 87% | 30.03 | 0.0 | |||||||
| Date | Time (edt) | Wind (mph) | Vis. (mi.) | Weather | Sky Cond. | Air | Dwpt | Max. | Min. | Relative Humidity | Wind Chill (°F) | Heat Index (°F) | altimeter (in) | sea level (mb) | 1 hr | 3 hr | 6 hr |
| 6 hour | |||||||||||||||||
| Temperature (ºF) | Pressure | Precipitation (in) | |||||||||||||||